< < Back
Terminal Aerodrome Forecast


Current Version              Previous Versions:   1  2  3  4  5  6  7  8  9  

Terminal Aerodrome Forecast

590
FTUS42 KJAX 292336
TAFSSI
TAF
KSSI 292336Z 3000/3024 07011KT P6SM VCTS SCT020CB BKN040
     FM300200 08006KT P6SM VCSH SCT040 BKN080
     FM301500 09011KT P6SM VCTS BKN040CB=

Latest METAR

917
SAUS70 KWBC 300300 RRL
MTRSSI
METAR KSSI 300253Z AUTO 08006KT 10SM FEW023 27/23 A3009 RMK AO2 LTG DSNT
SW AND W SLP191 60000 T02720233 53003


USA.gov is the U.S. government's official web portal to all federal, state and local government web resources and services.